createdAt,value
2023-02-22T00:01:51.339Z,6.58
2023-02-22T00:04:21.405Z,6.52
2023-02-22T00:06:50.869Z,6.53
2023-02-22T00:09:21.506Z,6.51
2023-02-22T00:11:50.239Z,6.46
2023-02-22T00:14:20.586Z,6.48
2023-02-22T00:16:51.703Z,6.46
2023-02-22T00:19:20.333Z,6.52
2023-02-22T00:21:53.963Z,6.49
2023-02-22T00:24:24.706Z,6.43
2023-02-22T00:26:55.596Z,6.48
2023-02-22T00:29:24.472Z,6.48
2023-02-22T00:31:54.151Z,6.43
2023-02-22T00:34:24.207Z,6.40
2023-02-22T00:36:55.113Z,6.37
2023-02-22T00:39:23.198Z,6.34
2023-02-22T00:41:51.254Z,6.34
2023-02-22T00:44:19.298Z,6.33
2023-02-22T00:46:47.482Z,6.34
2023-02-22T00:49:17.084Z,6.36
2023-02-22T00:51:45.182Z,6.39
2023-02-22T00:54:14.486Z,6.33
2023-02-22T00:56:42.549Z,6.33
2023-02-22T00:59:10.697Z,6.36
2023-02-22T01:01:38.820Z,6.33
2023-02-22T01:04:06.939Z,6.48
2023-02-22T01:06:36.404Z,6.39
2023-02-22T01:09:05.038Z,6.33
2023-02-22T01:11:33.107Z,6.38
2023-02-22T01:14:01.195Z,6.31
2023-02-22T01:16:29.372Z,6.29
2023-02-22T01:18:57.423Z,6.24
2023-02-22T01:21:25.489Z,6.29
2023-02-22T01:23:55.109Z,6.37
2023-02-22T01:26:23.235Z,6.28
2023-02-22T01:28:51.246Z,6.23
2023-02-22T01:31:19.594Z,6.10
2023-02-22T01:33:48.081Z,6.20
2023-02-22T01:36:16.599Z,6.05
2023-02-22T01:38:45.117Z,6.08
2023-02-22T01:41:18.568Z,6.12
2023-02-22T01:43:46.803Z,6.13
2023-02-22T01:46:23.309Z,6.15
2023-02-22T01:48:55.566Z,6.12
2023-02-22T01:51:26.451Z,6.13
2023-02-22T01:53:58.215Z,6.13
2023-02-22T01:56:30.836Z,6.11
2023-02-22T01:59:00.308Z,6.03
2023-02-22T02:01:29.733Z,5.90
2023-02-22T02:04:00.075Z,5.92
2023-02-22T02:06:32.569Z,5.92
2023-02-22T02:09:06.136Z,5.91
2023-02-22T02:11:35.947Z,5.86
2023-02-22T02:14:04.129Z,5.84
2023-02-22T02:16:40.143Z,5.84
2023-02-22T02:19:16.092Z,5.93
2023-02-22T02:22:10.538Z,5.86
2023-02-22T02:25:18.230Z,5.77
2023-02-22T02:28:07.007Z,5.82
2023-02-22T02:31:03.555Z,5.84
2023-02-22T02:33:35.973Z,5.81
2023-02-22T02:36:13.737Z,5.81
2023-02-22T02:38:46.820Z,5.72
2023-02-22T02:41:17.933Z,5.76
2023-02-22T02:43:54.629Z,5.70
2023-02-22T02:46:29.098Z,5.71
2023-02-22T02:49:01.680Z,5.68
2023-02-22T02:51:33.679Z,5.71
2023-02-22T02:54:04.264Z,5.71
2023-02-22T02:56:32.455Z,5.58
2023-02-22T02:59:00.497Z,5.58
2023-02-22T03:01:45.821Z,5.67
2023-02-22T03:04:25.520Z,5.72
2023-02-22T03:07:13.039Z,5.74
2023-02-22T03:09:58.521Z,5.67
2023-02-22T03:12:39.933Z,5.64
2023-02-22T03:15:21.981Z,5.66
2023-02-22T03:17:56.281Z,5.59
2023-02-22T03:20:32.655Z,5.63
2023-02-22T03:23:06.800Z,5.60
2023-02-22T03:25:41.370Z,5.55
2023-02-22T03:28:13.075Z,5.53
2023-02-22T03:30:46.243Z,5.51
2023-02-22T03:33:20.520Z,5.48
2023-02-22T03:35:56.948Z,5.49
2023-02-22T03:38:29.808Z,5.50
2023-02-22T03:41:00.731Z,5.51
2023-02-22T03:43:35.428Z,5.45
2023-02-22T03:46:04.929Z,5.51
2023-02-22T03:48:39.044Z,5.48
2023-02-22T03:51:08.886Z,5.48
2023-02-22T03:53:38.197Z,5.43
2023-02-22T03:56:10.543Z,5.36
2023-02-22T03:58:44.091Z,5.43
2023-02-22T04:01:13.773Z,5.43
2023-02-22T04:03:42.825Z,5.35
2023-02-22T04:06:12.462Z,5.40
2023-02-22T04:08:40.569Z,5.41
2023-02-22T04:11:08.576Z,5.37
2023-02-22T04:13:36.681Z,5.49
2023-02-22T04:16:04.788Z,5.41
2023-02-22T04:18:32.928Z,5.31
2023-02-22T04:21:04.371Z,5.40
2023-02-22T04:23:33.880Z,5.34
2023-02-22T04:26:01.919Z,5.32
2023-02-22T04:28:30.031Z,5.30
2023-02-22T04:30:58.056Z,5.17
2023-02-22T04:33:26.258Z,5.13
2023-02-22T04:35:54.389Z,5.11
2023-02-22T04:38:22.465Z,5.16
2023-02-22T04:40:51.942Z,5.12
2023-02-22T04:43:23.292Z,5.07
2023-02-22T04:45:51.426Z,5.10
2023-02-22T04:48:19.489Z,5.06
2023-02-22T04:50:47.890Z,4.98
2023-02-22T04:53:15.910Z,5.09
2023-02-22T04:55:43.996Z,5.11
2023-02-22T04:58:13.544Z,5.06
2023-02-22T05:00:41.699Z,5.03
2023-02-22T05:03:09.994Z,5.04
2023-02-22T05:05:37.974Z,4.98
2023-02-22T05:08:06.239Z,5.02
2023-02-22T05:10:34.248Z,5.07
2023-02-22T05:13:04.096Z,4.90
2023-02-22T05:15:33.748Z,4.88
2023-02-22T05:18:01.846Z,4.87
2023-02-22T05:20:32.662Z,4.84
2023-02-22T05:23:02.861Z,4.90
2023-02-22T05:25:31.045Z,4.94
2023-02-22T05:28:00.802Z,4.94
2023-02-22T05:30:31.346Z,4.89
2023-02-22T05:33:00.860Z,4.76
2023-02-22T05:35:30.041Z,4.64
2023-02-22T05:38:03.255Z,4.75
2023-02-22T05:40:32.099Z,4.71
2023-02-22T05:43:00.847Z,4.80
2023-02-22T05:45:29.976Z,4.78
2023-02-22T05:47:58.521Z,4.77
2023-02-22T05:50:28.225Z,4.74
2023-02-22T05:52:56.766Z,4.70
2023-02-22T05:55:25.624Z,4.68
2023-02-22T05:57:54.195Z,4.68
2023-02-22T06:00:24.433Z,4.67
2023-02-22T06:02:56.801Z,4.63
2023-02-22T06:05:25.591Z,4.61
2023-02-22T06:07:55.673Z,4.65
2023-02-22T06:10:24.150Z,4.62
2023-02-22T06:12:52.907Z,4.65
2023-02-22T06:15:22.261Z,4.69
2023-02-22T06:17:50.788Z,4.66
2023-02-22T06:20:22.817Z,4.61
2023-02-22T06:22:51.696Z,4.66
2023-02-22T06:25:24.074Z,4.76
2023-02-22T06:27:52.545Z,4.64
2023-02-22T06:30:23.455Z,4.67
2023-02-22T06:32:51.907Z,4.69
2023-02-22T06:35:20.679Z,4.65
2023-02-22T06:37:48.826Z,4.62
2023-02-22T06:40:17.583Z,4.65
2023-02-22T06:42:49.050Z,4.57
2023-02-22T06:45:18.187Z,4.59
2023-02-22T06:47:46.450Z,4.67
2023-02-22T06:50:22.449Z,4.61
2023-02-22T06:52:50.655Z,4.68
2023-02-22T06:55:20.256Z,4.71
2023-02-22T06:57:49.817Z,4.72
2023-02-22T07:00:19.887Z,4.65
2023-02-22T07:02:49.333Z,4.72
2023-02-22T07:05:19.083Z,4.73
2023-02-22T07:07:47.524Z,4.69
2023-02-22T07:10:20.641Z,4.74
2023-02-22T07:12:52.513Z,4.76
2023-02-22T07:15:22.563Z,4.77
2023-02-22T07:17:50.843Z,4.75
2023-02-22T07:20:20.719Z,4.80
2023-02-22T07:22:49.202Z,4.86
2023-02-22T07:25:17.758Z,4.85
2023-02-22T07:27:46.149Z,4.84
2023-02-22T07:30:19.992Z,4.85
2023-02-22T07:32:48.744Z,4.90
2023-02-22T07:35:18.576Z,4.90
2023-02-22T07:37:48.221Z,4.96
2023-02-22T07:40:18.091Z,4.95
2023-02-22T07:42:57.015Z,4.99
2023-02-22T07:45:28.364Z,4.97
2023-02-22T07:47:56.807Z,5.05
2023-02-22T07:50:26.587Z,5.03
2023-02-22T07:52:56.446Z,5.10
2023-02-22T07:55:27.203Z,5.09
2023-02-22T07:57:57.914Z,5.19
2023-02-22T08:00:29.494Z,5.15
2023-02-22T08:02:58.010Z,5.11
2023-02-22T08:05:28.007Z,5.13
2023-02-22T08:07:59.164Z,5.11
2023-02-22T08:10:28.519Z,5.18
2023-02-22T08:12:57.017Z,5.13
2023-02-22T08:15:29.643Z,5.16
2023-02-22T08:17:57.780Z,5.21
2023-02-22T08:20:26.363Z,5.33
2023-02-22T08:22:55.107Z,5.32
2023-02-22T08:25:28.279Z,5.34
2023-02-22T08:28:01.252Z,5.37
2023-02-22T08:30:32.487Z,5.36
2023-02-22T08:33:02.512Z,5.36
2023-02-22T08:35:31.868Z,5.40
2023-02-22T08:38:06.287Z,5.38
2023-02-22T08:40:36.746Z,5.47
2023-02-22T08:43:06.645Z,5.50
2023-02-22T08:45:36.229Z,5.48
2023-02-22T08:48:04.628Z,5.51
2023-02-22T08:50:34.185Z,5.54
2023-02-22T08:53:03.975Z,5.47
2023-02-22T08:55:34.792Z,5.51
2023-02-22T08:58:04.004Z,5.47
2023-02-22T09:00:33.951Z,5.57
2023-02-22T09:03:04.903Z,5.44
2023-02-22T09:05:33.851Z,5.54
2023-02-22T09:08:02.349Z,5.54
2023-02-22T09:10:32.880Z,5.59
2023-02-22T09:13:02.390Z,5.55
2023-02-22T09:15:31.015Z,5.59
2023-02-22T09:17:59.164Z,5.67
2023-02-22T09:20:29.336Z,5.65
2023-02-22T09:22:58.064Z,5.73
2023-02-22T09:25:27.211Z,5.75
2023-02-22T09:27:58.500Z,5.85
2023-02-22T09:30:32.148Z,5.92
2023-02-22T09:33:02.553Z,6.04
2023-02-22T09:35:36.144Z,6.04
2023-02-22T09:38:07.315Z,6.09
2023-02-22T09:40:44.812Z,6.19
2023-02-22T09:43:35.852Z,6.23
2023-02-22T09:46:19.397Z,6.35
2023-02-22T09:48:59.389Z,6.37
2023-02-22T09:51:35.837Z,6.40
2023-02-22T09:54:07.636Z,6.51
2023-02-22T09:56:36.511Z,6.53
2023-02-22T09:59:08.919Z,6.63
2023-02-22T10:01:43.467Z,6.64
2023-02-22T10:04:18.727Z,6.74
2023-02-22T10:07:06.779Z,6.84
2023-02-22T10:09:39.705Z,6.95
2023-02-22T10:12:12.986Z,7.02
2023-02-22T10:15:25.071Z,7.05
2023-02-22T10:18:00.561Z,7.18
2023-02-22T10:20:43.790Z,7.34
2023-02-22T10:23:22.999Z,7.44
2023-02-22T10:25:57.418Z,7.52
2023-02-22T10:28:31.048Z,7.50
2023-02-22T10:31:03.426Z,7.57
2023-02-22T10:33:34.976Z,7.72
2023-02-22T10:36:03.736Z,7.81
2023-02-22T10:38:34.977Z,7.95
2023-02-22T10:41:17.614Z,8.12
2023-02-22T10:43:46.070Z,8.26
2023-02-22T10:46:18.954Z,8.34
2023-02-22T10:48:51.454Z,8.52
2023-02-22T10:51:19.635Z,8.63
2023-02-22T10:53:59.149Z,8.69
2023-02-22T10:56:29.062Z,8.68
2023-02-22T10:58:59.723Z,8.74
2023-02-22T11:01:36.336Z,8.83
2023-02-22T11:04:13.492Z,9.01
2023-02-22T11:06:44.465Z,9.23
2023-02-22T11:09:17.968Z,9.47
2023-02-22T11:11:47.989Z,9.56
2023-02-22T11:14:28.982Z,9.78
2023-02-22T11:16:58.682Z,9.89
2023-02-22T11:19:29.345Z,9.89
2023-02-22T11:22:00.530Z,9.84
2023-02-22T11:24:43.592Z,10.11
2023-02-22T11:27:26.522Z,10.33
2023-02-22T11:29:54.724Z,10.65
2023-02-22T11:32:25.771Z,10.68
2023-02-22T11:35:08.309Z,10.80
2023-02-22T11:37:38.335Z,10.90
2023-02-22T11:40:18.459Z,10.60
2023-02-22T11:42:47.305Z,10.87
2023-02-22T11:45:21.431Z,11.09
2023-02-22T11:47:53.742Z,11.04
2023-02-22T11:50:29.289Z,11.14
2023-02-22T11:53:11.046Z,11.38
2023-02-22T11:55:51.101Z,11.35
2023-02-22T11:58:36.766Z,11.25
2023-02-22T12:01:17.249Z,11.11
2023-02-22T12:04:10.725Z,11.15
2023-02-22T12:06:51.407Z,11.11
2023-02-22T12:09:28.970Z,11.02
2023-02-22T12:12:09.066Z,10.96
2023-02-22T12:14:45.343Z,11.01
2023-02-22T12:17:26.817Z,11.07
2023-02-22T12:20:01.740Z,11.25
2023-02-22T12:22:34.699Z,11.48
2023-02-22T12:25:14.671Z,11.55
2023-02-22T12:27:49.294Z,11.57
2023-02-22T12:30:23.792Z,11.64
2023-02-22T12:32:55.058Z,11.87
2023-02-22T12:35:27.107Z,11.78
2023-02-22T12:38:04.209Z,11.88
2023-02-22T12:40:38.437Z,11.89
2023-02-22T12:43:17.339Z,11.83
2023-02-22T12:45:50.366Z,11.95
2023-02-22T12:48:32.676Z,11.93
2023-02-22T12:51:08.546Z,12.00
2023-02-22T12:53:40.256Z,12.09
2023-02-22T12:56:21.556Z,12.18
2023-02-22T12:58:56.700Z,12.29
2023-02-22T13:01:30.122Z,12.25
2023-02-22T13:04:00.713Z,12.22
2023-02-22T13:06:41.814Z,12.28
2023-02-22T13:09:37.464Z,12.33
2023-02-22T13:12:10.658Z,12.29
2023-02-22T13:14:59.141Z,12.36
2023-02-22T13:17:34.473Z,12.26
2023-02-22T13:20:08.788Z,12.31
2023-02-22T13:22:44.559Z,12.26
2023-02-22T13:25:16.752Z,12.14
2023-02-22T13:27:49.974Z,12.01
2023-02-22T13:30:25.382Z,11.99
2023-02-22T13:33:17.086Z,12.06
2023-02-22T13:36:10.025Z,12.16
2023-02-22T13:39:17.361Z,12.00
2023-02-22T13:41:56.248Z,12.03
2023-02-22T13:44:38.634Z,11.94
2023-02-22T13:47:26.445Z,11.92
2023-02-22T13:50:11.288Z,11.94
2023-02-22T13:52:41.773Z,11.97
2023-02-22T13:55:19.138Z,12.00
2023-02-22T13:57:50.926Z,11.89
2023-02-22T14:00:25.854Z,11.67
2023-02-22T14:03:06.852Z,11.69
2023-02-22T14:05:53.763Z,11.69
2023-02-22T14:08:44.045Z,11.76
2023-02-22T14:11:52.166Z,11.80
2023-02-22T14:14:20.639Z,11.84
2023-02-22T14:17:30.992Z,11.73
2023-02-22T14:20:14.792Z,11.71
2023-02-22T14:22:44.424Z,11.63
2023-02-22T14:25:33.885Z,11.35
2023-02-22T14:28:03.398Z,11.39
2023-02-22T14:30:33.966Z,11.23
2023-02-22T14:33:02.968Z,11.30
2023-02-22T14:35:49.368Z,11.26
2023-02-22T14:38:21.630Z,11.19
2023-02-22T14:40:52.661Z,11.23
2023-02-22T14:43:24.862Z,11.18
2023-02-22T14:45:56.083Z,11.16
2023-02-22T14:48:37.402Z,11.09
2023-02-22T14:51:21.376Z,10.97
2023-02-22T14:53:54.950Z,10.96
2023-02-22T14:56:26.636Z,10.93
2023-02-22T14:58:59.641Z,10.90
2023-02-22T15:01:47.525Z,10.83
2023-02-22T15:04:22.477Z,10.77
2023-02-22T15:06:52.370Z,10.75
2023-02-22T15:09:27.637Z,10.73
2023-02-22T15:12:13.974Z,10.63
2023-02-22T15:14:44.714Z,10.66
2023-02-22T15:17:19.849Z,10.65
2023-02-22T15:19:49.755Z,10.52
2023-02-22T15:22:24.036Z,10.44
2023-02-22T15:25:00.456Z,10.25
2023-02-22T15:27:29.474Z,10.26
2023-02-22T15:30:04.756Z,10.18
2023-02-22T15:32:36.401Z,10.15
2023-02-22T15:35:27.377Z,10.07
2023-02-22T15:38:06.217Z,10.11
2023-02-22T15:40:36.050Z,10.14
2023-02-22T15:43:08.594Z,10.10
2023-02-22T15:45:43.027Z,10.13
2023-02-22T15:48:12.395Z,10.08
2023-02-22T15:50:40.485Z,10.03
2023-02-22T15:53:26.475Z,10.03
2023-02-22T15:55:58.954Z,9.98
2023-02-22T15:58:30.112Z,9.93
2023-02-22T16:01:02.769Z,9.86
2023-02-22T16:03:38.740Z,9.81
2023-02-22T16:06:12.565Z,9.84
2023-02-22T16:08:54.771Z,9.83
2023-02-22T16:11:30.146Z,9.79
2023-02-22T16:14:02.016Z,9.81
2023-02-22T16:16:33.264Z,9.72
2023-02-22T16:19:38.043Z,9.57
2023-02-22T16:22:13.750Z,9.53
2023-02-22T16:24:43.274Z,9.55
2023-02-22T16:27:20.070Z,9.53
2023-02-22T16:30:18.733Z,9.46
2023-02-22T16:32:51.453Z,9.48
2023-02-22T16:35:19.622Z,9.51
2023-02-22T16:37:49.790Z,9.51
2023-02-22T16:40:24.790Z,9.48
2023-02-22T16:42:53.010Z,9.47
2023-02-22T16:45:22.213Z,9.44
2023-02-22T16:47:52.670Z,9.43
2023-02-22T16:50:21.868Z,9.42
2023-02-22T16:52:49.989Z,9.37
2023-02-22T16:55:20.554Z,9.36
2023-02-22T16:57:51.321Z,9.36
2023-02-22T17:00:31.070Z,9.35
2023-02-22T17:03:02.544Z,9.32
2023-02-22T17:05:31.421Z,9.28
2023-02-22T17:07:59.490Z,9.27
2023-02-22T17:10:27.927Z,9.23
2023-02-22T17:12:57.736Z,9.20
2023-02-22T17:15:27.641Z,9.15
2023-02-22T17:17:57.628Z,9.13
2023-02-22T17:20:30.226Z,9.05
2023-02-22T17:22:59.362Z,9.04
2023-02-22T17:25:30.898Z,9.02
2023-02-22T17:28:01.374Z,9.00
2023-02-22T17:30:31.370Z,8.95
2023-02-22T17:33:03.656Z,8.95
2023-02-22T17:35:36.319Z,8.95
2023-02-22T17:38:06.305Z,8.88
2023-02-22T17:40:35.210Z,8.88
2023-02-22T17:43:08.086Z,8.85
2023-02-22T17:45:39.268Z,8.83
2023-02-22T17:48:08.843Z,8.78
2023-02-22T17:50:38.155Z,8.78
2023-02-22T17:53:10.934Z,8.77
2023-02-22T17:55:40.678Z,8.76
2023-02-22T17:58:14.825Z,8.75
2023-02-22T18:00:48.412Z,8.68
2023-02-22T18:03:21.595Z,8.71
2023-02-22T18:05:51.499Z,8.70
2023-02-22T18:08:21.435Z,8.69
2023-02-22T18:10:52.688Z,8.65
2023-02-22T18:13:22.827Z,8.59
2023-02-22T18:15:50.972Z,8.57
2023-02-22T18:18:19.352Z,8.59
2023-02-22T18:20:51.500Z,8.57
2023-02-22T18:23:22.395Z,8.52
2023-02-22T18:26:09.190Z,8.54
2023-02-22T18:28:40.292Z,8.54
2023-02-22T18:31:09.594Z,8.48
2023-02-22T18:33:37.781Z,8.49
2023-02-22T18:36:06.562Z,8.49
2023-02-22T18:38:34.610Z,8.47
2023-02-22T18:41:04.417Z,8.47
2023-02-22T18:43:34.401Z,8.47
2023-02-22T18:46:11.935Z,8.41
2023-02-22T18:48:40.915Z,8.41
2023-02-22T18:51:11.356Z,8.39
2023-02-22T18:53:46.602Z,8.39
2023-02-22T18:56:17.910Z,8.35
2023-02-22T18:58:46.294Z,8.35
2023-02-22T19:01:19.571Z,8.35
2023-02-22T19:03:48.151Z,8.30
2023-02-22T19:06:18.219Z,8.28
2023-02-22T19:08:50.691Z,8.32
2023-02-22T19:11:21.842Z,8.31
2023-02-22T19:13:51.462Z,8.27
2023-02-22T19:16:22.928Z,8.27
2023-02-22T19:18:52.803Z,8.23
2023-02-22T19:21:21.862Z,8.23
2023-02-22T19:23:50.332Z,8.21
2023-02-22T19:26:24.102Z,8.18
2023-02-22T19:28:53.317Z,8.19
2023-02-22T19:31:29.663Z,8.15
2023-02-22T19:34:02.519Z,8.18
2023-02-22T19:36:30.672Z,8.16
2023-02-22T19:39:01.670Z,8.16
2023-02-22T19:41:30.806Z,8.15
2023-02-22T19:43:59.607Z,8.20
2023-02-22T19:46:29.531Z,8.18
2023-02-22T19:48:57.778Z,8.16
2023-02-22T19:51:27.954Z,8.16
2023-02-22T19:53:59.187Z,8.12
2023-02-22T19:56:28.473Z,8.13
2023-02-22T19:58:58.772Z,8.13
2023-02-22T20:01:30.358Z,8.11
2023-02-22T20:04:00.298Z,8.12
2023-02-22T20:06:34.800Z,8.13
2023-02-22T20:09:03.700Z,8.13
2023-02-22T20:11:31.983Z,8.15
2023-02-22T20:14:01.991Z,8.12
2023-02-22T20:16:31.502Z,8.11
2023-02-22T20:18:59.997Z,8.13
2023-02-22T20:21:31.232Z,8.12
2023-02-22T20:23:59.406Z,8.12
2023-02-22T20:26:29.436Z,8.06
2023-02-22T20:28:58.253Z,8.07
2023-02-22T20:31:29.658Z,8.05
2023-02-22T20:34:01.038Z,8.06
2023-02-22T20:36:34.820Z,8.10
2023-02-22T20:39:03.203Z,8.08
2023-02-22T20:41:35.352Z,8.06
2023-02-22T20:44:06.975Z,8.05
2023-02-22T20:46:36.791Z,8.08
2023-02-22T20:49:11.203Z,8.05
2023-02-22T20:51:40.556Z,8.04
2023-02-22T20:54:11.707Z,8.03
2023-02-22T20:56:41.910Z,7.99
2023-02-22T20:59:13.022Z,8.02
2023-02-22T21:01:41.260Z,7.95
2023-02-22T21:04:12.087Z,7.98
2023-02-22T21:06:41.627Z,7.97
2023-02-22T21:09:14.205Z,7.97
2023-02-22T21:11:46.661Z,7.94
2023-02-22T21:14:19.746Z,7.94
2023-02-22T21:16:52.430Z,7.94
2023-02-22T21:19:26.544Z,7.99
2023-02-22T21:21:56.050Z,7.95
2023-02-22T21:24:25.334Z,7.91
2023-02-22T21:26:58.687Z,7.98
2023-02-22T21:29:27.652Z,7.94
2023-02-22T21:31:55.950Z,7.95
2023-02-22T21:34:26.244Z,7.97
2023-02-22T21:36:54.546Z,7.97
2023-02-22T21:39:22.878Z,7.95
2023-02-22T21:41:53.245Z,7.95
2023-02-22T21:44:22.141Z,7.97
2023-02-22T21:46:50.142Z,7.96
2023-02-22T21:49:18.826Z,7.95
2023-02-22T21:51:48.228Z,7.92
2023-02-22T21:54:16.928Z,7.98
2023-02-22T21:56:45.065Z,7.93
2023-02-22T21:59:14.948Z,7.93
2023-02-22T22:01:47.163Z,7.94
2023-02-22T22:04:18.940Z,7.90
2023-02-22T22:06:50.918Z,7.91
2023-02-22T22:09:23.539Z,7.89
2023-02-22T22:11:53.422Z,7.89
2023-02-22T22:14:24.188Z,7.90
2023-02-22T22:16:54.767Z,7.89
2023-02-22T22:19:23.013Z,7.88
2023-02-22T22:21:55.515Z,7.90
2023-02-22T22:24:24.151Z,7.85
2023-02-22T22:26:55.456Z,7.86
2023-02-22T22:29:24.472Z,7.86
2023-02-22T22:31:53.268Z,7.89
2023-02-22T22:34:24.334Z,7.89
2023-02-22T22:36:58.123Z,7.87
2023-02-22T22:39:26.946Z,7.90
2023-02-22T22:41:57.765Z,7.84
2023-02-22T22:44:32.653Z,7.84
2023-02-22T22:47:01.061Z,7.86
2023-02-22T22:49:33.575Z,7.85
2023-02-22T22:52:03.002Z,7.83
2023-02-22T22:54:31.042Z,7.79
2023-02-22T22:56:59.058Z,7.79
2023-02-22T22:59:27.813Z,7.74
2023-02-22T23:01:56.736Z,7.77
2023-02-22T23:04:25.503Z,7.75
2023-02-22T23:06:55.622Z,7.71
2023-02-22T23:09:27.003Z,7.71
2023-02-22T23:11:56.816Z,7.71
2023-02-22T23:14:26.985Z,7.67
2023-02-22T23:16:59.859Z,7.66
2023-02-22T23:19:27.999Z,7.62
2023-02-22T23:21:56.153Z,7.63
2023-02-22T23:24:27.548Z,7.60
2023-02-22T23:27:00.308Z,7.56
2023-02-22T23:29:29.924Z,7.54
2023-02-22T23:31:58.759Z,7.52
2023-02-22T23:34:29.050Z,7.49
2023-02-22T23:36:57.248Z,7.48
2023-02-22T23:39:27.342Z,7.45
2023-02-22T23:41:59.229Z,7.43
2023-02-22T23:44:28.079Z,7.38
2023-02-22T23:46:56.446Z,7.37
2023-02-22T23:49:26.495Z,7.32
2023-02-22T23:51:55.702Z,7.39
2023-02-22T23:54:24.832Z,7.36
2023-02-22T23:56:57.260Z,7.33
2023-02-22T23:59:26.933Z,7.30
